sensor_id;sensor_type;location;lat;lon;timestamp;P1;durP1;ratioP1;P2;durP2;ratioP2
62523;SDS011;53689;56.878;60.672;2023-04-21T00:00:17;10.82;;;7.30;;
62523;SDS011;53689;56.878;60.672;2023-04-21T00:02:45;9.75;;;7.35;;
62523;SDS011;53689;56.878;60.672;2023-04-21T00:05:12;11.15;;;7.60;;
62523;SDS011;53689;56.878;60.672;2023-04-21T00:07:41;11.60;;;7.10;;
62523;SDS011;53689;56.878;60.672;2023-04-21T00:10:09;11.25;;;7.20;;
62523;SDS011;53689;56.878;60.672;2023-04-21T00:12:37;10.27;;;6.80;;
62523;SDS011;53689;56.878;60.672;2023-04-21T00:15:05;11.20;;;6.53;;
62523;SDS011;53689;56.878;60.672;2023-04-21T00:17:34;10.75;;;7.18;;
62523;SDS011;53689;56.878;60.672;2023-04-21T00:20:02;10.27;;;6.55;;
62523;SDS011;53689;56.878;60.672;2023-04-21T00:22:30;10.95;;;7.07;;
62523;SDS011;53689;56.878;60.672;2023-04-21T00:24:59;11.95;;;7.57;;
62523;SDS011;53689;56.878;60.672;2023-04-21T00:27:27;9.35;;;7.10;;
62523;SDS011;53689;56.878;60.672;2023-04-21T00:29:55;10.70;;;7.70;;
62523;SDS011;53689;56.878;60.672;2023-04-21T00:32:23;12.45;;;7.15;;
62523;SDS011;53689;56.878;60.672;2023-04-21T00:34:50;10.27;;;7.18;;
62523;SDS011;53689;56.878;60.672;2023-04-21T00:37:18;10.35;;;7.38;;
62523;SDS011;53689;56.878;60.672;2023-04-21T00:39:45;10.38;;;6.78;;
62523;SDS011;53689;56.878;60.672;2023-04-21T00:42:15;10.23;;;7.07;;
62523;SDS011;53689;56.878;60.672;2023-04-21T00:44:43;10.82;;;6.95;;
62523;SDS011;53689;56.878;60.672;2023-04-21T00:47:10;8.90;;;6.47;;
62523;SDS011;53689;56.878;60.672;2023-04-21T00:49:38;9.32;;;7.32;;
62523;SDS011;53689;56.878;60.672;2023-04-21T00:52:06;9.10;;;6.35;;
62523;SDS011;53689;56.878;60.672;2023-04-21T00:54:35;10.37;;;7.10;;
62523;SDS011;53689;56.878;60.672;2023-04-21T00:57:03;8.13;;;6.53;;
62523;SDS011;53689;56.878;60.672;2023-04-21T00:59:32;10.02;;;6.68;;
62523;SDS011;53689;56.878;60.672;2023-04-21T01:02:01;10.27;;;6.18;;
62523;SDS011;53689;56.878;60.672;2023-04-21T01:04:29;9.85;;;6.85;;
62523;SDS011;53689;56.878;60.672;2023-04-21T01:06:56;10.75;;;7.18;;
62523;SDS011;53689;56.878;60.672;2023-04-21T01:09:25;8.00;;;6.00;;
62523;SDS011;53689;56.878;60.672;2023-04-21T01:14:28;7.80;;;5.88;;
62523;SDS011;53689;56.878;60.672;2023-04-21T01:16:58;9.50;;;6.35;;
62523;SDS011;53689;56.878;60.672;2023-04-21T01:19:27;9.60;;;6.53;;
62523;SDS011;53689;56.878;60.672;2023-04-21T01:22:00;9.32;;;6.50;;
62523;SDS011;53689;56.878;60.672;2023-04-21T01:24:35;9.48;;;6.22;;
62523;SDS011;53689;56.878;60.672;2023-04-21T01:27:07;8.35;;;6.47;;
62523;SDS011;53689;56.878;60.672;2023-04-21T01:29:36;9.45;;;7.05;;
62523;SDS011;53689;56.878;60.672;2023-04-21T01:32:06;9.70;;;7.20;;
62523;SDS011;53689;56.878;60.672;2023-04-21T01:34:36;8.35;;;6.30;;
62523;SDS011;53689;56.878;60.672;2023-04-21T01:37:07;9.95;;;6.07;;
62523;SDS011;53689;56.878;60.672;2023-04-21T01:39:36;8.38;;;6.07;;
62523;SDS011;53689;56.878;60.672;2023-04-21T01:42:04;7.70;;;6.07;;
62523;SDS011;53689;56.878;60.672;2023-04-21T01:47:01;8.02;;;5.97;;
62523;SDS011;53689;56.878;60.672;2023-04-21T01:49:30;8.05;;;5.43;;
62523;SDS011;53689;56.878;60.672;2023-04-21T01:51:58;9.15;;;6.70;;
62523;SDS011;53689;56.878;60.672;2023-04-21T01:54:27;9.00;;;6.30;;
62523;SDS011;53689;56.878;60.672;2023-04-21T01:56:55;9.32;;;6.75;;
62523;SDS011;53689;56.878;60.672;2023-04-21T01:59:22;9.60;;;6.88;;
62523;SDS011;53689;56.878;60.672;2023-04-21T02:01:50;10.43;;;8.13;;
62523;SDS011;53689;56.878;60.672;2023-04-21T02:04:18;8.27;;;6.25;;
62523;SDS011;53689;56.878;60.672;2023-04-21T02:06:45;11.57;;;7.90;;
62523;SDS011;53689;56.878;60.672;2023-04-21T02:09:14;9.82;;;7.00;;
62523;SDS011;53689;56.878;60.672;2023-04-21T02:11:42;7.95;;;5.95;;
62523;SDS011;53689;56.878;60.672;2023-04-21T02:14:10;11.55;;;7.13;;
62523;SDS011;53689;56.878;60.672;2023-04-21T02:16:39;9.43;;;6.67;;
62523;SDS011;53689;56.878;60.672;2023-04-21T02:19:06;11.23;;;7.85;;
62523;SDS011;53689;56.878;60.672;2023-04-21T02:21:34;10.05;;;7.80;;
62523;SDS011;53689;56.878;60.672;2023-04-21T02:24:01;9.10;;;7.30;;
62523;SDS011;53689;56.878;60.672;2023-04-21T02:26:29;10.30;;;6.90;;
62523;SDS011;53689;56.878;60.672;2023-04-21T02:29:00;8.32;;;6.70;;
62523;SDS011;53689;56.878;60.672;2023-04-21T02:31:28;11.95;;;8.90;;
62523;SDS011;53689;56.878;60.672;2023-04-21T02:33:55;11.38;;;8.13;;
62523;SDS011;53689;56.878;60.672;2023-04-21T02:36:23;8.43;;;6.68;;
62523;SDS011;53689;56.878;60.672;2023-04-21T02:38:55;10.98;;;7.95;;
62523;SDS011;53689;56.878;60.672;2023-04-21T02:41:23;9.38;;;7.03;;
62523;SDS011;53689;56.878;60.672;2023-04-21T02:43:50;10.50;;;7.18;;
62523;SDS011;53689;56.878;60.672;2023-04-21T02:46:22;10.10;;;7.32;;
62523;SDS011;53689;56.878;60.672;2023-04-21T02:48:50;10.45;;;7.43;;
62523;SDS011;53689;56.878;60.672;2023-04-21T02:51:18;10.02;;;7.55;;
62523;SDS011;53689;56.878;60.672;2023-04-21T02:53:45;10.80;;;7.53;;
62523;SDS011;53689;56.878;60.672;2023-04-21T02:56:13;11.48;;;8.40;;
62523;SDS011;53689;56.878;60.672;2023-04-21T02:58:40;11.75;;;7.88;;
62523;SDS011;53689;56.878;60.672;2023-04-21T03:01:09;9.85;;;6.82;;
62523;SDS011;53689;56.878;60.672;2023-04-21T03:03:38;9.77;;;6.55;;
62523;SDS011;53689;56.878;60.672;2023-04-21T03:06:06;8.65;;;6.43;;
62523;SDS011;53689;56.878;60.672;2023-04-21T03:08:33;11.07;;;7.22;;
62523;SDS011;53689;56.878;60.672;2023-04-21T03:11:01;9.38;;;7.05;;
62523;SDS011;53689;56.878;60.672;2023-04-21T03:13:28;11.02;;;7.50;;
62523;SDS011;53689;56.878;60.672;2023-04-21T03:15:56;8.32;;;6.07;;
62523;SDS011;53689;56.878;60.672;2023-04-21T03:18:24;10.38;;;6.97;;
62523;SDS011;53689;56.878;60.672;2023-04-21T03:20:57;11.43;;;8.38;;
62523;SDS011;53689;56.878;60.672;2023-04-21T03:23:26;10.68;;;7.32;;
62523;SDS011;53689;56.878;60.672;2023-04-21T03:25:53;10.82;;;8.40;;
62523;SDS011;53689;56.878;60.672;2023-04-21T03:28:21;10.43;;;7.72;;
62523;SDS011;53689;56.878;60.672;2023-04-21T03:30:50;12.70;;;9.32;;
62523;SDS011;53689;56.878;60.672;2023-04-21T03:33:18;10.30;;;7.43;;
62523;SDS011;53689;56.878;60.672;2023-04-21T03:35:45;10.38;;;7.22;;
62523;SDS011;53689;56.878;60.672;2023-04-21T03:38:14;11.20;;;7.53;;
62523;SDS011;53689;56.878;60.672;2023-04-21T03:40:41;13.98;;;10.02;;
62523;SDS011;53689;56.878;60.672;2023-04-21T03:43:09;10.30;;;8.30;;
62523;SDS011;53689;56.878;60.672;2023-04-21T03:45:37;12.38;;;8.30;;
62523;SDS011;53689;56.878;60.672;2023-04-21T03:48:05;12.93;;;8.35;;
62523;SDS011;53689;56.878;60.672;2023-04-21T03:50:33;10.68;;;7.43;;
62523;SDS011;53689;56.878;60.672;2023-04-21T03:53:00;12.60;;;8.43;;
62523;SDS011;53689;56.878;60.672;2023-04-21T03:55:29;11.77;;;8.10;;
62523;SDS011;53689;56.878;60.672;2023-04-21T03:57:57;10.70;;;8.23;;
62523;SDS011;53689;56.878;60.672;2023-04-21T04:00:25;10.75;;;8.27;;
62523;SDS011;53689;56.878;60.672;2023-04-21T04:02:53;12.02;;;8.48;;
62523;SDS011;53689;56.878;60.672;2023-04-21T04:05:21;12.43;;;9.10;;
62523;SDS011;53689;56.878;60.672;2023-04-21T04:07:48;10.23;;;7.82;;
62523;SDS011;53689;56.878;60.672;2023-04-21T04:10:16;14.93;;;10.00;;
62523;SDS011;53689;56.878;60.672;2023-04-21T04:12:45;13.85;;;9.50;;
62523;SDS011;53689;56.878;60.672;2023-04-21T04:15:13;15.52;;;9.40;;
62523;SDS011;53689;56.878;60.672;2023-04-21T04:17:40;11.45;;;8.48;;
62523;SDS011;53689;56.878;60.672;2023-04-21T04:20:08;13.75;;;9.80;;
62523;SDS011;53689;56.878;60.672;2023-04-21T04:22:36;14.98;;;10.63;;
62523;SDS011;53689;56.878;60.672;2023-04-21T04:25:03;13.63;;;9.00;;
62523;SDS011;53689;56.878;60.672;2023-04-21T04:27:31;13.32;;;8.52;;
62523;SDS011;53689;56.878;60.672;2023-04-21T04:30:00;14.55;;;9.50;;
62523;SDS011;53689;56.878;60.672;2023-04-21T04:32:28;13.25;;;7.38;;
62523;SDS011;53689;56.878;60.672;2023-04-21T04:34:56;14.93;;;9.13;;
62523;SDS011;53689;56.878;60.672;2023-04-21T04:37:24;13.23;;;7.88;;
62523;SDS011;53689;56.878;60.672;2023-04-21T04:39:51;14.52;;;8.70;;
62523;SDS011;53689;56.878;60.672;2023-04-21T04:42:19;13.30;;;8.43;;
62523;SDS011;53689;56.878;60.672;2023-04-21T04:44:47;15.20;;;9.48;;
62523;SDS011;53689;56.878;60.672;2023-04-21T04:47:20;13.43;;;8.32;;
62523;SDS011;53689;56.878;60.672;2023-04-21T04:49:47;12.60;;;7.90;;
62523;SDS011;53689;56.878;60.672;2023-04-21T04:52:15;17.08;;;10.55;;
62523;SDS011;53689;56.878;60.672;2023-04-21T04:54:42;18.38;;;11.70;;
62523;SDS011;53689;56.878;60.672;2023-04-21T04:57:10;22.02;;;12.05;;
62523;SDS011;53689;56.878;60.672;2023-04-21T04:59:37;19.63;;;13.25;;
62523;SDS011;53689;56.878;60.672;2023-04-21T05:02:06;22.50;;;14.88;;
62523;SDS011;53689;56.878;60.672;2023-04-21T05:04:35;21.52;;;13.65;;
62523;SDS011;53689;56.878;60.672;2023-04-21T05:07:03;20.40;;;11.23;;
62523;SDS011;53689;56.878;60.672;2023-04-21T05:09:31;22.50;;;12.60;;
62523;SDS011;53689;56.878;60.672;2023-04-21T05:11:59;20.95;;;13.20;;
62523;SDS011;53689;56.878;60.672;2023-04-21T05:14:26;21.00;;;12.07;;
62523;SDS011;53689;56.878;60.672;2023-04-21T05:16:54;23.67;;;12.32;;
62523;SDS011;53689;56.878;60.672;2023-04-21T05:19:21;17.25;;;11.27;;
62523;SDS011;53689;56.878;60.672;2023-04-21T05:21:51;24.38;;;12.68;;
62523;SDS011;53689;56.878;60.672;2023-04-21T05:24:18;21.58;;;12.85;;
62523;SDS011;53689;56.878;60.672;2023-04-21T05:26:46;21.20;;;11.73;;
62523;SDS011;53689;56.878;60.672;2023-04-21T05:29:13;20.98;;;13.38;;
62523;SDS011;53689;56.878;60.672;2023-04-21T05:31:41;20.48;;;13.27;;
62523;SDS011;53689;56.878;60.672;2023-04-21T05:34:09;19.67;;;11.95;;
62523;SDS011;53689;56.878;60.672;2023-04-21T05:36:39;22.02;;;12.82;;
62523;SDS011;53689;56.878;60.672;2023-04-21T05:39:08;20.50;;;12.68;;
62523;SDS011;53689;56.878;60.672;2023-04-21T05:41:36;17.98;;;12.05;;
62523;SDS011;53689;56.878;60.672;2023-04-21T05:44:04;18.02;;;11.88;;
62523;SDS011;53689;56.878;60.672;2023-04-21T05:46:31;19.60;;;12.57;;
62523;SDS011;53689;56.878;60.672;2023-04-21T05:48:59;22.48;;;13.77;;
62523;SDS011;53689;56.878;60.672;2023-04-21T05:51:27;25.80;;;13.45;;
62523;SDS011;53689;56.878;60.672;2023-04-21T05:53:54;22.50;;;13.68;;
62523;SDS011;53689;56.878;60.672;2023-04-21T05:56:23;23.02;;;14.40;;
62523;SDS011;53689;56.878;60.672;2023-04-21T05:58:51;24.08;;;13.88;;
62523;SDS011;53689;56.878;60.672;2023-04-21T06:01:18;22.70;;;14.38;;
62523;SDS011;53689;56.878;60.672;2023-04-21T06:03:46;21.90;;;14.18;;
62523;SDS011;53689;56.878;60.672;2023-04-21T06:06:14;20.83;;;14.35;;
62523;SDS011;53689;56.878;60.672;2023-04-21T06:08:42;25.50;;;15.25;;
62523;SDS011;53689;56.878;60.672;2023-04-21T06:11:10;20.42;;;13.82;;
62523;SDS011;53689;56.878;60.672;2023-04-21T06:13:39;19.55;;;12.35;;
62523;SDS011;53689;56.878;60.672;2023-04-21T06:16:09;19.90;;;12.35;;
62523;SDS011;53689;56.878;60.672;2023-04-21T06:18:36;21.90;;;14.43;;
62523;SDS011;53689;56.878;60.672;2023-04-21T06:21:04;22.80;;;14.63;;
62523;SDS011;53689;56.878;60.672;2023-04-21T06:23:32;16.17;;;10.23;;
62523;SDS011;53689;56.878;60.672;2023-04-21T06:25:59;18.48;;;11.18;;
62523;SDS011;53689;56.878;60.672;2023-04-21T06:28:27;19.92;;;13.20;;
62523;SDS011;53689;56.878;60.672;2023-04-21T06:30:56;24.05;;;13.85;;
62523;SDS011;53689;56.878;60.672;2023-04-21T06:33:24;17.98;;;12.95;;
62523;SDS011;53689;56.878;60.672;2023-04-21T06:35:52;21.23;;;13.85;;
62523;SDS011;53689;56.878;60.672;2023-04-21T06:38:19;19.48;;;12.35;;
62523;SDS011;53689;56.878;60.672;2023-04-21T06:40:47;18.75;;;13.18;;
62523;SDS011;53689;56.878;60.672;2023-04-21T06:43:15;23.95;;;12.80;;
62523;SDS011;53689;56.878;60.672;2023-04-21T06:45:42;21.63;;;12.20;;
62523;SDS011;53689;56.878;60.672;2023-04-21T06:48:12;19.77;;;11.95;;
62523;SDS011;53689;56.878;60.672;2023-04-21T06:50:39;21.30;;;12.20;;
62523;SDS011;53689;56.878;60.672;2023-04-21T06:53:08;27.63;;;13.07;;
62523;SDS011;53689;56.878;60.672;2023-04-21T06:55:36;21.98;;;14.27;;
62523;SDS011;53689;56.878;60.672;2023-04-21T06:58:04;20.70;;;14.45;;
62523;SDS011;53689;56.878;60.672;2023-04-21T07:00:31;21.70;;;13.52;;
62523;SDS011;53689;56.878;60.672;2023-04-21T07:02:59;20.05;;;12.40;;
62523;SDS011;53689;56.878;60.672;2023-04-21T07:05:29;17.98;;;14.45;;
62523;SDS011;53689;56.878;60.672;2023-04-21T07:07:56;21.75;;;12.88;;
62523;SDS011;53689;56.878;60.672;2023-04-21T07:10:25;19.20;;;13.07;;
62523;SDS011;53689;56.878;60.672;2023-04-21T07:12:53;26.00;;;16.03;;
62523;SDS011;53689;56.878;60.672;2023-04-21T07:15:21;20.42;;;13.75;;
62523;SDS011;53689;56.878;60.672;2023-04-21T07:17:50;17.42;;;11.38;;
62523;SDS011;53689;56.878;60.672;2023-04-21T07:20:19;19.58;;;11.73;;
62523;SDS011;53689;56.878;60.672;2023-04-21T07:22:48;19.67;;;13.35;;
62523;SDS011;53689;56.878;60.672;2023-04-21T07:25:15;22.33;;;12.77;;
62523;SDS011;53689;56.878;60.672;2023-04-21T07:27:43;17.33;;;11.05;;
62523;SDS011;53689;56.878;60.672;2023-04-21T07:30:11;19.10;;;12.27;;
62523;SDS011;53689;56.878;60.672;2023-04-21T07:32:39;19.10;;;11.48;;
62523;SDS011;53689;56.878;60.672;2023-04-21T07:35:08;18.00;;;11.75;;
62523;SDS011;53689;56.878;60.672;2023-04-21T07:37:36;21.35;;;11.73;;
62523;SDS011;53689;56.878;60.672;2023-04-21T07:40:05;20.77;;;11.65;;
62523;SDS011;53689;56.878;60.672;2023-04-21T07:42:35;19.05;;;12.48;;
62523;SDS011;53689;56.878;60.672;2023-04-21T07:45:02;18.38;;;11.73;;
62523;SDS011;53689;56.878;60.672;2023-04-21T07:47:30;19.27;;;13.27;;
62523;SDS011;53689;56.878;60.672;2023-04-21T07:49:59;19.23;;;11.63;;
62523;SDS011;53689;56.878;60.672;2023-04-21T07:52:26;19.55;;;10.73;;
62523;SDS011;53689;56.878;60.672;2023-04-21T07:54:54;19.17;;;10.45;;
62523;SDS011;53689;56.878;60.672;2023-04-21T07:57:23;19.35;;;11.57;;
62523;SDS011;53689;56.878;60.672;2023-04-21T07:59:51;20.40;;;10.73;;
62523;SDS011;53689;56.878;60.672;2023-04-21T08:02:18;14.23;;;9.45;;
62523;SDS011;53689;56.878;60.672;2023-04-21T08:04:46;21.20;;;12.10;;
62523;SDS011;53689;56.878;60.672;2023-04-21T08:07:14;20.02;;;11.05;;
62523;SDS011;53689;56.878;60.672;2023-04-21T08:09:42;19.42;;;9.70;;
62523;SDS011;53689;56.878;60.672;2023-04-21T08:12:10;15.50;;;9.63;;
62523;SDS011;53689;56.878;60.672;2023-04-21T08:14:39;15.52;;;10.13;;
62523;SDS011;53689;56.878;60.672;2023-04-21T08:17:07;17.40;;;10.10;;
62523;SDS011;53689;56.878;60.672;2023-04-21T08:19:35;15.30;;;9.55;;
62523;SDS011;53689;56.878;60.672;2023-04-21T08:22:02;16.50;;;10.35;;
62523;SDS011;53689;56.878;60.672;2023-04-21T08:24:30;16.15;;;10.05;;
62523;SDS011;53689;56.878;60.672;2023-04-21T08:26:58;16.42;;;9.15;;
62523;SDS011;53689;56.878;60.672;2023-04-21T08:29:26;14.70;;;8.77;;
62523;SDS011;53689;56.878;60.672;2023-04-21T08:31:55;13.60;;;9.00;;
62523;SDS011;53689;56.878;60.672;2023-04-21T08:36:53;12.38;;;8.00;;
62523;SDS011;53689;56.878;60.672;2023-04-21T08:39:21;13.20;;;8.80;;
62523;SDS011;53689;56.878;60.672;2023-04-21T08:41:48;13.82;;;8.70;;
62523;SDS011;53689;56.878;60.672;2023-04-21T08:44:17;16.60;;;9.07;;
62523;SDS011;53689;56.878;60.672;2023-04-21T08:46:47;12.98;;;9.25;;
62523;SDS011;53689;56.878;60.672;2023-04-21T08:49:18;13.95;;;9.13;;
62523;SDS011;53689;56.878;60.672;2023-04-21T08:51:47;20.67;;;8.68;;
62523;SDS011;53689;56.878;60.672;2023-04-21T08:54:15;12.50;;;7.32;;
62523;SDS011;53689;56.878;60.672;2023-04-21T08:56:43;13.85;;;7.15;;
62523;SDS011;53689;56.878;60.672;2023-04-21T08:59:10;13.85;;;7.40;;
62523;SDS011;53689;56.878;60.672;2023-04-21T09:04:48;13.90;;;7.10;;
62523;SDS011;53689;56.878;60.672;2023-04-21T09:07:29;19.45;;;7.70;;
62523;SDS011;53689;56.878;60.672;2023-04-21T09:09:58;10.85;;;6.75;;
62523;SDS011;53689;56.878;60.672;2023-04-21T09:12:26;14.15;;;8.05;;
62523;SDS011;53689;56.878;60.672;2023-04-21T09:14:55;13.77;;;10.07;;
62523;SDS011;53689;56.878;60.672;2023-04-21T09:17:26;16.92;;;11.10;;
62523;SDS011;53689;56.878;60.672;2023-04-21T09:19:56;15.13;;;10.95;;
62523;SDS011;53689;56.878;60.672;2023-04-21T09:22:26;17.83;;;10.90;;
62523;SDS011;53689;56.878;60.672;2023-04-21T09:24:56;16.02;;;10.50;;
62523;SDS011;53689;56.878;60.672;2023-04-21T09:27:24;14.85;;;10.45;;
62523;SDS011;53689;56.878;60.672;2023-04-21T09:29:52;16.45;;;9.70;;
62523;SDS011;53689;56.878;60.672;2023-04-21T09:32:20;12.98;;;9.80;;
62523;SDS011;53689;56.878;60.672;2023-04-21T09:34:48;17.65;;;10.02;;
62523;SDS011;53689;56.878;60.672;2023-04-21T09:37:17;16.83;;;10.40;;
62523;SDS011;53689;56.878;60.672;2023-04-21T09:39:45;14.85;;;10.25;;
62523;SDS011;53689;56.878;60.672;2023-04-21T09:42:30;17.38;;;11.40;;
62523;SDS011;53689;56.878;60.672;2023-04-21T09:45:00;17.10;;;12.25;;
62523;SDS011;53689;56.878;60.672;2023-04-21T09:47:49;15.60;;;11.15;;
62523;SDS011;53689;56.878;60.672;2023-04-21T09:50:17;15.25;;;10.50;;
62523;SDS011;53689;56.878;60.672;2023-04-21T09:53:08;13.52;;;9.77;;
62523;SDS011;53689;56.878;60.672;2023-04-21T09:55:41;16.17;;;10.27;;
62523;SDS011;53689;56.878;60.672;2023-04-21T09:58:08;17.45;;;10.65;;
62523;SDS011;53689;56.878;60.672;2023-04-21T10:00:39;14.68;;;10.40;;
62523;SDS011;53689;56.878;60.672;2023-04-21T10:03:06;13.82;;;10.30;;
62523;SDS011;53689;56.878;60.672;2023-04-21T10:05:37;14.23;;;9.55;;
62523;SDS011;53689;56.878;60.672;2023-04-21T10:08:10;15.02;;;10.20;;
62523;SDS011;53689;56.878;60.672;2023-04-21T10:10:38;16.60;;;10.80;;
62523;SDS011;53689;56.878;60.672;2023-04-21T10:13:06;15.93;;;10.43;;
62523;SDS011;53689;56.878;60.672;2023-04-21T10:15:39;14.57;;;9.50;;
62523;SDS011;53689;56.878;60.672;2023-04-21T10:20:54;16.30;;;10.27;;
62523;SDS011;53689;56.878;60.672;2023-04-21T10:26:11;14.90;;;10.68;;
62523;SDS011;53689;56.878;60.672;2023-04-21T10:28:43;19.83;;;11.95;;
62523;SDS011;53689;56.878;60.672;2023-04-21T10:31:16;15.65;;;9.90;;
62523;SDS011;53689;56.878;60.672;2023-04-21T10:39:37;18.75;;;10.27;;
62523;SDS011;53689;56.878;60.672;2023-04-21T10:42:19;13.93;;;9.48;;
62523;SDS011;53689;56.878;60.672;2023-04-21T10:44:51;15.35;;;9.30;;
62523;SDS011;53689;56.878;60.672;2023-04-21T10:47:26;15.50;;;8.77;;
62523;SDS011;53689;56.878;60.672;2023-04-21T10:49:54;15.40;;;9.45;;
62523;SDS011;53689;56.878;60.672;2023-04-21T10:52:29;16.73;;;9.10;;
62523;SDS011;53689;56.878;60.672;2023-04-21T10:55:05;14.40;;;8.73;;
62523;SDS011;53689;56.878;60.672;2023-04-21T10:57:34;25.55;;;19.95;;
62523;SDS011;53689;56.878;60.672;2023-04-21T11:00:02;16.30;;;12.98;;
62523;SDS011;53689;56.878;60.672;2023-04-21T11:02:32;13.37;;;10.37;;
62523;SDS011;53689;56.878;60.672;2023-04-21T11:05:04;13.93;;;10.82;;
62523;SDS011;53689;56.878;60.672;2023-04-21T11:07:32;14.32;;;9.90;;
62523;SDS011;53689;56.878;60.672;2023-04-21T11:10:00;15.27;;;11.13;;
62523;SDS011;53689;56.878;60.672;2023-04-21T11:12:32;20.52;;;14.80;;
62523;SDS011;53689;56.878;60.672;2023-04-21T11:15:02;17.48;;;12.23;;
62523;SDS011;53689;56.878;60.672;2023-04-21T11:17:31;17.67;;;10.90;;
62523;SDS011;53689;56.878;60.672;2023-04-21T11:20:00;19.45;;;14.23;;
62523;SDS011;53689;56.878;60.672;2023-04-21T11:22:28;21.05;;;13.57;;
62523;SDS011;53689;56.878;60.672;2023-04-21T11:24:56;19.30;;;11.70;;
62523;SDS011;53689;56.878;60.672;2023-04-21T11:27:25;17.65;;;11.45;;
62523;SDS011;53689;56.878;60.672;2023-04-21T11:29:55;22.00;;;13.40;;
62523;SDS011;53689;56.878;60.672;2023-04-21T11:32:23;20.60;;;13.30;;
62523;SDS011;53689;56.878;60.672;2023-04-21T11:34:51;16.77;;;10.82;;
62523;SDS011;53689;56.878;60.672;2023-04-21T11:37:21;15.50;;;10.83;;
62523;SDS011;53689;56.878;60.672;2023-04-21T11:39:55;13.85;;;10.73;;
62523;SDS011;53689;56.878;60.672;2023-04-21T11:42:23;16.48;;;9.43;;
62523;SDS011;53689;56.878;60.672;2023-04-21T11:44:52;12.02;;;9.13;;
62523;SDS011;53689;56.878;60.672;2023-04-21T11:47:23;15.20;;;9.57;;
62523;SDS011;53689;56.878;60.672;2023-04-21T11:49:52;12.27;;;9.00;;
62523;SDS011;53689;56.878;60.672;2023-04-21T11:52:21;14.60;;;9.40;;
62523;SDS011;53689;56.878;60.672;2023-04-21T11:54:53;12.98;;;9.60;;
62523;SDS011;53689;56.878;60.672;2023-04-21T11:57:23;14.43;;;8.90;;
62523;SDS011;53689;56.878;60.672;2023-04-21T11:59:52;13.73;;;9.57;;
62523;SDS011;53689;56.878;60.672;2023-04-21T12:02:22;15.80;;;11.60;;
62523;SDS011;53689;56.878;60.672;2023-04-21T12:05:02;11.18;;;8.38;;
62523;SDS011;53689;56.878;60.672;2023-04-21T12:07:31;11.02;;;7.75;;
62523;SDS011;53689;56.878;60.672;2023-04-21T12:09:59;13.70;;;7.88;;
62523;SDS011;53689;56.878;60.672;2023-04-21T12:12:28;12.43;;;7.78;;
62523;SDS011;53689;56.878;60.672;2023-04-21T12:14:56;12.55;;;8.30;;
62523;SDS011;53689;56.878;60.672;2023-04-21T12:17:25;10.07;;;6.93;;
62523;SDS011;53689;56.878;60.672;2023-04-21T12:19:53;10.38;;;7.20;;
62523;SDS011;53689;56.878;60.672;2023-04-21T12:22:21;12.73;;;7.50;;
62523;SDS011;53689;56.878;60.672;2023-04-21T12:24:51;11.98;;;6.53;;
62523;SDS011;53689;56.878;60.672;2023-04-21T12:27:19;9.30;;;7.15;;
62523;SDS011;53689;56.878;60.672;2023-04-21T12:29:46;9.55;;;6.53;;
62523;SDS011;53689;56.878;60.672;2023-04-21T12:32:14;11.00;;;6.97;;
62523;SDS011;53689;56.878;60.672;2023-04-21T12:34:43;13.07;;;7.47;;
62523;SDS011;53689;56.878;60.672;2023-04-21T12:37:10;9.05;;;6.82;;
62523;SDS011;53689;56.878;60.672;2023-04-21T12:39:38;15.05;;;7.28;;
62523;SDS011;53689;56.878;60.672;2023-04-21T12:42:06;11.65;;;7.32;;
62523;SDS011;53689;56.878;60.672;2023-04-21T12:44:33;13.75;;;8.32;;
62523;SDS011;53689;56.878;60.672;2023-04-21T12:47:01;13.82;;;8.68;;
62523;SDS011;53689;56.878;60.672;2023-04-21T12:49:28;11.70;;;7.68;;
62523;SDS011;53689;56.878;60.672;2023-04-21T12:51:58;12.50;;;8.02;;
62523;SDS011;53689;56.878;60.672;2023-04-21T12:54:26;14.32;;;8.50;;
62523;SDS011;53689;56.878;60.672;2023-04-21T12:56:53;15.90;;;9.07;;
62523;SDS011;53689;56.878;60.672;2023-04-21T12:59:21;12.85;;;8.55;;
62523;SDS011;53689;56.878;60.672;2023-04-21T13:01:49;17.80;;;9.18;;
62523;SDS011;53689;56.878;60.672;2023-04-21T13:04:17;15.57;;;7.72;;
62523;SDS011;53689;56.878;60.672;2023-04-21T13:06:44;16.17;;;8.80;;
62523;SDS011;53689;56.878;60.672;2023-04-21T13:09:13;14.65;;;8.13;;
62523;SDS011;53689;56.878;60.672;2023-04-21T13:11:42;15.85;;;8.18;;
62523;SDS011;53689;56.878;60.672;2023-04-21T13:14:10;15.05;;;7.65;;
62523;SDS011;53689;56.878;60.672;2023-04-21T13:16:37;18.73;;;8.38;;
62523;SDS011;53689;56.878;60.672;2023-04-21T13:19:05;16.70;;;7.28;;
62523;SDS011;53689;56.878;60.672;2023-04-21T13:21:32;19.17;;;8.23;;
62523;SDS011;53689;56.878;60.672;2023-04-21T13:24:00;16.95;;;9.07;;
62523;SDS011;53689;56.878;60.672;2023-04-21T13:26:30;16.15;;;9.27;;
62523;SDS011;53689;56.878;60.672;2023-04-21T13:31:25;17.60;;;8.85;;
62523;SDS011;53689;56.878;60.672;2023-04-21T13:33:53;16.63;;;7.63;;
62523;SDS011;53689;56.878;60.672;2023-04-21T13:36:20;17.45;;;7.82;;
62523;SDS011;53689;56.878;60.672;2023-04-21T13:38:48;17.58;;;6.90;;
62523;SDS011;53689;56.878;60.672;2023-04-21T13:41:15;17.02;;;7.15;;
62523;SDS011;53689;56.878;60.672;2023-04-21T13:43:45;16.52;;;7.32;;
62523;SDS011;53689;56.878;60.672;2023-04-21T13:46:12;16.63;;;7.10;;
62523;SDS011;53689;56.878;60.672;2023-04-21T13:48:43;13.82;;;6.78;;
62523;SDS011;53689;56.878;60.672;2023-04-21T13:51:11;13.38;;;7.28;;
62523;SDS011;53689;56.878;60.672;2023-04-21T13:53:38;14.98;;;7.18;;
62523;SDS011;53689;56.878;60.672;2023-04-21T13:56:06;19.13;;;7.43;;
62523;SDS011;53689;56.878;60.672;2023-04-21T13:58:34;11.60;;;6.93;;
62523;SDS011;53689;56.878;60.672;2023-04-21T14:01:03;12.35;;;6.97;;
62523;SDS011;53689;56.878;60.672;2023-04-21T14:03:30;15.35;;;7.40;;
62523;SDS011;53689;56.878;60.672;2023-04-21T14:06:01;14.07;;;7.43;;
62523;SDS011;53689;56.878;60.672;2023-04-21T14:08:29;14.13;;;7.68;;
62523;SDS011;53689;56.878;60.672;2023-04-21T14:10:57;16.13;;;6.70;;
62523;SDS011;53689;56.878;60.672;2023-04-21T14:13:24;11.70;;;6.15;;
62523;SDS011;53689;56.878;60.672;2023-04-21T14:16:07;12.70;;;6.20;;
62523;SDS011;53689;56.878;60.672;2023-04-21T14:18:35;9.05;;;5.80;;
62523;SDS011;53689;56.878;60.672;2023-04-21T14:21:02;12.75;;;6.38;;
62523;SDS011;53689;56.878;60.672;2023-04-21T14:23:30;14.02;;;6.60;;
62523;SDS011;53689;56.878;60.672;2023-04-21T14:25:58;10.80;;;7.40;;
62523;SDS011;53689;56.878;60.672;2023-04-21T14:28:26;11.77;;;6.40;;
62523;SDS011;53689;56.878;60.672;2023-04-21T14:30:53;10.30;;;6.20;;
62523;SDS011;53689;56.878;60.672;2023-04-21T14:33:22;12.80;;;6.30;;
62523;SDS011;53689;56.878;60.672;2023-04-21T14:35:50;10.43;;;6.10;;
62523;SDS011;53689;56.878;60.672;2023-04-21T14:38:18;10.10;;;5.80;;
62523;SDS011;53689;56.878;60.672;2023-04-21T14:40:45;9.35;;;6.07;;
62523;SDS011;53689;56.878;60.672;2023-04-21T14:43:13;7.93;;;5.88;;
62523;SDS011;53689;56.878;60.672;2023-04-21T14:45:40;8.70;;;6.00;;
62523;SDS011;53689;56.878;60.672;2023-04-21T14:48:08;10.48;;;5.85;;
62523;SDS011;53689;56.878;60.672;2023-04-21T14:50:37;9.07;;;5.65;;